Time;durP1;ratioP1;P1;durP2;ratioP2;P2;SDS_P1;SDS_P2;PMS_P1;PMS_P2;Temp;Humidity;BMP_temperature;BMP_pressure;BME280_temperature;BME280_humidity;BME280_pressure;Samples;Min_cycle;Max_cycle;Signal;HPM_P1;HPM_P2
2022/07/30 00:00:05;;;;;;;;;;;16.90;99.90;;;;;;5036463;28;20385;-85
2022/07/30 00:02:30;;;;;;;;;;;16.80;99.90;;;;;;5036389;28;19916;-85
2022/07/30 00:04:56;;;;;;;;;;;16.70;99.90;;;;;;5036529;28;19974;-86
2022/07/30 00:07:21;;;;;;;;;;;16.70;99.90;;;;;;5036868;28;19924;-85
2022/07/30 00:09:47;;;;;;;;;;;16.70;99.90;;;;;;5035622;28;19927;-85
2022/07/30 00:12:12;;;;;;;;;;;16.70;99.90;;;;;;5036458;28;19916;-85
2022/07/30 00:14:38;;;;;;;;;;;16.60;99.90;;;;;;5036237;28;19923;-85
2022/07/30 00:17:03;;;;;;;;;;;16.60;99.90;;;;;;5036199;28;20054;-86
2022/07/30 00:19:29;;;;;;;;;;;16.60;99.90;;;;;;5036008;28;19923;-86
2022/07/30 00:21:55;;;;;;;;;;;16.60;99.90;;;;;;5036264;28;19935;-86
2022/07/30 00:24:21;;;;;;;;;;;16.60;99.90;;;;;;5036057;28;19924;-86
2022/07/30 00:26:46;;;;;;;;;;;16.60;99.90;;;;;;5036483;28;19925;-85
2022/07/30 00:29:12;;;;;;;;;;;16.60;99.90;;;;;;5036291;28;19917;-85
2022/07/30 00:31:38;;;;;;;;;;;16.60;99.90;;;;;;5019563;28;19917;-85
2022/07/30 00:34:04;;;;;;;;;;;16.50;99.90;;;;;;5035871;28;19960;-85
2022/07/30 00:36:29;;;;;;;;;;;16.50;99.90;;;;;;5036051;28;19964;-84
2022/07/30 00:38:55;;;;;;;;;;;16.50;99.90;;;;;;5036096;28;19920;-85
2022/07/30 00:41:21;;;;;;;;;;;16.50;99.90;;;;;;5036207;28;19916;-86
2022/07/30 00:43:46;;;;;;;;;;;16.30;99.90;;;;;;5035806;28;19925;-86
2022/07/30 00:46:13;;;;;;;;;;;16.20;99.90;;;;;;5035947;28;20431;-85
2022/07/30 00:48:39;;;;;;;;;;;16.20;99.90;;;;;;5035700;28;19917;-85
2022/07/30 00:51:04;;;;;;;;;;;16.10;99.90;;;;;;5035760;28;20331;-86
2022/07/30 00:53:30;;;;;;;;;;;16.00;99.90;;;;;;5002084;28;19921;-85
2022/07/30 00:55:56;;;;;;;;;;;16.00;99.90;;;;;;5052338;28;19920;-85
2022/07/30 00:58:21;;;;;;;;;;;15.90;99.90;;;;;;5036204;28;19921;-85
2022/07/30 01:00:47;;;;;;;;;;;15.80;99.90;;;;;;5035900;28;19975;-85
2022/07/30 01:03:12;;;;;;;;;;;15.70;99.90;;;;;;5016140;28;19921;-85
2022/07/30 01:05:38;;;;;;;;;;;15.70;99.90;;;;;;5034903;28;19971;-84
2022/07/30 01:08:03;;;;;;;;;;;15.60;99.90;;;;;;5035322;28;20012;-85
2022/07/30 01:10:29;;;;;;;;;;;15.50;99.90;;;;;;5035617;28;19916;-86
2022/07/30 01:12:57;;;;;;;;;;;15.50;99.90;;;;;;5035156;28;19916;-86
2022/07/30 01:15:24;;;;;;;;;;;15.40;99.90;;;;;;5035760;28;20292;-85
2022/07/30 01:17:50;;;;;;;;;;;15.30;99.90;;;;;;5035115;28;19924;-85
2022/07/30 01:20:17;;;;;;;;;;;15.20;99.90;;;;;;5035838;28;20414;-85
2022/07/30 01:22:43;;;;;;;;;;;15.10;99.90;;;;;;5033976;28;19917;-85
2022/07/30 01:25:13;;;;;;;;;;;15.10;99.90;;;;;;5035243;28;19924;-85
2022/07/30 01:27:47;;;;;;;;;;;15.00;99.90;;;;;;5032705;28;20019;-86
2022/07/30 01:30:14;;;;;;;;;;;14.90;99.90;;;;;;5035513;28;19924;-85
2022/07/30 01:32:41;;;;;;;;;;;14.80;99.90;;;;;;5017732;28;20337;-86
2022/07/30 01:35:07;;;;;;;;;;;14.80;99.90;;;;;;5034477;28;20296;-85
2022/07/30 01:37:33;;;;;;;;;;;14.70;99.90;;;;;;5034865;28;19923;-85
2022/07/30 01:39:59;;;;;;;;;;;14.70;99.90;;;;;;5034400;28;19917;-85
2022/07/30 01:42:25;;;;;;;;;;;14.70;99.90;;;;;;5034620;28;19921;-85
2022/07/30 01:44:52;;;;;;;;;;;14.70;99.90;;;;;;5034549;28;19971;-86
2022/07/30 01:47:19;;;;;;;;;;;14.80;99.90;;;;;;5034665;28;20039;-85
2022/07/30 01:49:46;;;;;;;;;;;14.80;99.90;;;;;;5034268;28;19920;-86
2022/07/30 01:52:12;;;;;;;;;;;14.80;99.90;;;;;;5018125;28;19943;-85
2022/07/30 01:54:39;;;;;;;;;;;14.80;99.90;;;;;;5047943;28;20270;-86
2022/07/30 01:57:05;;;;;;;;;;;14.80;99.90;;;;;;5034304;28;19917;-86
2022/07/30 01:59:32;;;;;;;;;;;14.80;99.90;;;;;;5034506;28;19942;-85
2022/07/30 02:01:58;;;;;;;;;;;14.80;99.90;;;;;;5034419;28;19935;-85
2022/07/30 02:04:23;;;;;;;;;;;14.70;99.90;;;;;;5034489;28;19916;-85
2022/07/30 02:06:58;;;;;;;;;;;14.70;99.90;;;;;;5000595;28;19982;-85
2022/07/30 02:09:27;;;;;;;;;;;14.80;99.90;;;;;;5033117;28;20365;-85
2022/07/30 02:15:00;;;;;;;;;;;14.70;99.90;;;;;;5034383;28;19928;-85
2022/07/30 02:17:32;;;;;;;;;;;14.80;99.90;;;;;;5034285;28;20430;-86
2022/07/30 02:19:59;;;;;;;;;;;14.80;99.90;;;;;;5033790;28;19927;-85
2022/07/30 02:22:27;;;;;;;;;;;14.80;99.90;;;;;;5034607;28;19939;-85
2022/07/30 02:24:54;;;;;;;;;;;14.80;99.90;;;;;;5033809;28;19917;-86
2022/07/30 02:27:26;;;;;;;;;;;14.90;99.90;;;;;;5034091;28;19921;-85
2022/07/30 02:29:52;;;;;;;;;;;14.80;99.90;;;;;;5033517;28;19917;-86
2022/07/30 02:32:20;;;;;;;;;;;14.80;99.90;;;;;;5034033;28;20377;-86
2022/07/30 02:34:48;;;;;;;;;;;14.70;99.90;;;;;;5033194;28;19917;-86
2022/07/30 02:37:14;;;;;;;;;;;14.50;99.90;;;;;;5033757;28;19924;-86
2022/07/30 02:39:42;;;;;;;;;;;14.50;99.90;;;;;;5034091;28;19967;-86
2022/07/30 02:42:08;;;;;;;;;;;14.40;99.90;;;;;;5034121;28;19920;-85
2022/07/30 02:44:36;;;;;;;;;;;14.30;99.90;;;;;;5017550;28;19916;-85
2022/07/30 02:47:01;;;;;;;;;;;14.10;99.90;;;;;;5033531;28;20007;-84
2022/07/30 02:49:28;;;;;;;;;;;14.00;99.90;;;;;;5017939;28;19935;-85
2022/07/30 02:51:54;;;;;;;;;;;14.00;99.90;;;;;;5030500;28;19983;-85
2022/07/30 02:54:21;;;;;;;;;;;13.90;99.90;;;;;;5030578;28;19928;-84
2022/07/30 02:56:48;;;;;;;;;;;13.90;99.90;;;;;;5029400;28;19939;-84
2022/07/30 02:59:14;;;;;;;;;;;13.90;99.90;;;;;;5030235;28;20003;-83
2022/07/30 03:01:41;;;;;;;;;;;13.90;99.90;;;;;;5025706;28;20416;-86
2022/07/30 03:04:07;;;;;;;;;;;13.90;99.90;;;;;;5030099;28;20415;-85
2022/07/30 03:06:34;;;;;;;;;;;13.90;99.90;;;;;;5030684;28;20297;-85
2022/07/30 03:09:01;;;;;;;;;;;13.80;99.90;;;;;;5013465;28;20008;-85
2022/07/30 03:11:26;;;;;;;;;;;13.70;99.90;;;;;;5030223;28;19924;-85
2022/07/30 03:13:52;;;;;;;;;;;13.70;99.90;;;;;;5030166;28;20305;-85
2022/07/30 03:16:20;;;;;;;;;;;13.60;99.90;;;;;;5013716;28;20392;-85
2022/07/30 03:18:48;;;;;;;;;;;13.60;99.90;;;;;;5013324;28;19917;-85
2022/07/30 03:21:14;;;;;;;;;;;13.60;99.90;;;;;;5030541;28;20007;-85
2022/07/30 03:23:41;;;;;;;;;;;13.60;99.90;;;;;;5030071;28;19921;-84
2022/07/30 03:26:07;;;;;;;;;;;13.60;99.90;;;;;;5030259;28;19971;-85
2022/07/30 03:28:36;;;;;;;;;;;13.60;99.90;;;;;;5030110;28;19960;-85
2022/07/30 03:31:02;;;;;;;;;;;13.60;99.90;;;;;;5029989;28;19916;-84
2022/07/30 03:33:28;;;;;;;;;;;13.60;99.90;;;;;;5013791;28;20343;-87
2022/07/30 03:35:54;;;;;;;;;;;13.70;99.90;;;;;;5017765;28;19917;-83
2022/07/30 03:38:20;;;;;;;;;;;13.70;99.90;;;;;;5021331;28;19924;-85
2022/07/30 03:40:45;;;;;;;;;;;13.80;99.90;;;;;;5030171;28;19917;-84
2022/07/30 03:43:11;;;;;;;;;;;13.80;99.90;;;;;;5029546;28;19924;-84
2022/07/30 03:45:43;;;;;;;;;;;13.80;99.90;;;;;;5031431;28;20282;-85
2022/07/30 03:48:10;;;;;;;;;;;13.80;99.90;;;;;;5033205;28;19920;-85
2022/07/30 03:50:37;;;;;;;;;;;13.90;99.90;;;;;;5034415;28;20312;-86
2022/07/30 03:53:03;;;;;;;;;;;13.80;99.90;;;;;;5036737;28;19927;-85
2022/07/30 03:55:29;;;;;;;;;;;13.90;99.90;;;;;;5020542;28;20303;-86
2022/07/30 03:57:55;;;;;;;;;;;13.90;99.90;;;;;;5036566;28;19931;-86
2022/07/30 04:00:21;;;;;;;;;;;14.00;99.90;;;;;;5036810;28;20335;-86
2022/07/30 04:02:47;;;;;;;;;;;14.00;99.90;;;;;;5036988;28;19917;-86
2022/07/30 04:05:13;;;;;;;;;;;14.00;99.90;;;;;;5036424;28;19968;-86
2022/07/30 04:07:39;;;;;;;;;;;14.10;99.90;;;;;;5036885;28;19928;-87
2022/07/30 04:10:05;;;;;;;;;;;14.10;99.90;;;;;;5019655;28;19917;-85
2022/07/30 04:12:31;;;;;;;;;;;14.10;99.90;;;;;;5020278;28;19916;-85
2022/07/30 04:14:56;;;;;;;;;;;14.10;99.90;;;;;;5019744;28;19924;-85
2022/07/30 04:17:25;;;;;;;;;;;14.10;99.90;;;;;;5036551;28;21053;-86
2022/07/30 04:19:51;;;;;;;;;;;14.10;99.90;;;;;;5036408;28;19917;-86
2022/07/30 04:22:20;;;;;;;;;;;14.20;99.90;;;;;;5036200;28;19921;-86
2022/07/30 04:24:46;;;;;;;;;;;14.10;99.90;;;;;;5040910;28;19916;-85
2022/07/30 04:27:12;;;;;;;;;;;14.20;99.90;;;;;;5026639;28;20011;-86
2022/07/30 04:29:39;;;;;;;;;;;14.20;99.90;;;;;;5036700;28;19975;-85
2022/07/30 04:32:06;;;;;;;;;;;14.20;99.90;;;;;;5035789;28;19917;-86
2022/07/30 04:34:32;;;;;;;;;;;14.10;99.90;;;;;;5036154;28;19916;-86
2022/07/30 04:36:57;;;;;;;;;;;14.10;99.90;;;;;;5036328;28;19920;-86
2022/07/30 04:39:23;;;;;;;;;;;14.00;99.90;;;;;;5036096;28;19920;-86
2022/07/30 04:41:48;;;;;;;;;;;13.90;99.90;;;;;;5036025;28;19948;-86
2022/07/30 04:44:14;;;;;;;;;;;13.90;99.90;;;;;;5035542;28;19920;-85
2022/07/30 04:46:40;;;;;;;;;;;13.90;99.90;;;;;;5035936;28;19935;-85
2022/07/30 04:49:06;;;;;;;;;;;13.80;99.90;;;;;;5035771;28;19924;-85
2022/07/30 04:51:33;;;;;;;;;;;13.80;99.90;;;;;;5036067;28;19921;-85
2022/07/30 04:54:00;;;;;;;;;;;13.70;99.90;;;;;;5035300;28;19936;-86
2022/07/30 04:56:27;;;;;;;;;;;13.60;99.90;;;;;;5033744;28;20254;-86
2022/07/30 04:58:53;;;;;;;;;;;13.70;99.90;;;;;;5019171;28;19916;-86
2022/07/30 05:01:23;;;;;;;;;;;13.70;99.90;;;;;;5035186;28;20003;-85
2022/07/30 05:03:49;;;;;;;;;;;13.80;99.90;;;;;;5035519;28;19948;-85
2022/07/30 05:06:15;;;;;;;;;;;13.80;99.90;;;;;;5028416;28;19921;-85
2022/07/30 05:08:41;;;;;;;;;;;13.90;99.90;;;;;;5035950;28;19916;-85
2022/07/30 05:11:10;;;;;;;;;;;14.00;99.90;;;;;;5035207;28;19921;-85
2022/07/30 05:13:35;;;;;;;;;;;14.00;99.90;;;;;;5018569;28;20016;-84
2022/07/30 05:16:01;;;;;;;;;;;14.10;99.90;;;;;;5034168;28;20341;-85
2022/07/30 05:18:27;;;;;;;;;;;14.10;99.90;;;;;;5034580;28;20368;-85
2022/07/30 05:20:53;;;;;;;;;;;14.10;99.90;;;;;;5018716;28;19921;-86
2022/07/30 05:23:18;;;;;;;;;;;14.20;99.90;;;;;;5001530;28;19917;-85
2022/07/30 05:25:44;;;;;;;;;;;14.20;99.90;;;;;;5002973;28;19921;-87
2022/07/30 05:28:09;;;;;;;;;;;14.30;99.90;;;;;;5018682;28;19917;-86
2022/07/30 05:30:35;;;;;;;;;;;14.40;99.90;;;;;;5035623;28;19917;-84
2022/07/30 05:33:01;;;;;;;;;;;14.50;99.90;;;;;;5034804;28;19917;-85
2022/07/30 05:35:27;;;;;;;;;;;14.70;99.90;;;;;;5035151;28;19998;-86
2022/07/30 05:37:52;;;;;;;;;;;14.70;99.90;;;;;;5035225;28;19917;-86
2022/07/30 05:40:18;;;;;;;;;;;14.80;99.90;;;;;;5017584;28;19969;-86
2022/07/30 05:42:43;;;;;;;;;;;15.00;99.90;;;;;;5034281;28;19917;-86
2022/07/30 05:45:09;;;;;;;;;;;15.10;99.90;;;;;;5018009;28;19917;-85
2022/07/30 05:47:34;;;;;;;;;;;15.20;99.90;;;;;;5034638;28;20034;-85
2022/07/30 05:50:00;;;;;;;;;;;15.40;99.90;;;;;;5018322;28;19924;-85
2022/07/30 05:52:26;;;;;;;;;;;15.50;99.90;;;;;;5031195;28;20281;-85
2022/07/30 05:54:51;;;;;;;;;;;15.70;99.90;;;;;;5031290;28;19921;-86
2022/07/30 05:57:17;;;;;;;;;;;15.80;99.90;;;;;;5030844;28;19925;-85
2022/07/30 05:59:42;;;;;;;;;;;15.90;99.90;;;;;;5031695;28;19990;-84
2022/07/30 06:02:08;;;;;;;;;;;16.10;99.90;;;;;;5014531;28;19955;-85
2022/07/30 06:04:34;;;;;;;;;;;16.30;99.90;;;;;;5025932;28;19995;-85
2022/07/30 06:06:59;;;;;;;;;;;16.50;99.90;;;;;;5031448;28;19960;-86
2022/07/30 06:09:25;;;;;;;;;;;16.60;99.90;;;;;;4997901;28;19928;-86
2022/07/30 06:11:50;;;;;;;;;;;17.00;99.90;;;;;;5028545;28;19917;-86
2022/07/30 06:14:16;;;;;;;;;;;17.30;99.90;;;;;;5014246;28;20407;-85
2022/07/30 06:16:41;;;;;;;;;;;17.80;99.90;;;;;;5031057;28;20309;-86
2022/07/30 06:19:07;;;;;;;;;;;18.30;99.90;;;;;;5031021;28;19921;-86
2022/07/30 06:21:33;;;;;;;;;;;18.70;99.90;;;;;;5031023;28;19924;-86
2022/07/30 06:23:58;;;;;;;;;;;19.10;99.90;;;;;;5030821;28;19921;-86
2022/07/30 06:26:24;;;;;;;;;;;19.50;99.90;;;;;;5030541;28;20011;-86
2022/07/30 06:28:49;;;;;;;;;;;19.70;99.90;;;;;;5030850;28;20598;-86
2022/07/30 06:31:15;;;;;;;;;;;20.00;99.90;;;;;;5030583;28;19927;-86
2022/07/30 06:33:41;;;;;;;;;;;20.10;99.90;;;;;;5031308;28;19924;-85
2022/07/30 06:36:07;;;;;;;;;;;20.40;99.90;;;;;;5031266;28;20369;-85
2022/07/30 06:38:33;;;;;;;;;;;20.60;99.90;;;;;;5014968;28;19917;-86
2022/07/30 06:40:58;;;;;;;;;;;20.40;99.90;;;;;;5031089;28;19921;-85
2022/07/30 06:43:24;;;;;;;;;;;20.20;99.90;;;;;;5030645;28;19917;-86
2022/07/30 06:45:49;;;;;;;;;;;20.30;99.90;;;;;;5031171;28;19948;-86
2022/07/30 06:48:15;;;;;;;;;;;20.60;99.90;;;;;;5031162;28;20377;-85
2022/07/30 06:50:40;;;;;;;;;;;20.80;99.90;;;;;;5032861;28;20297;-85
2022/07/30 06:53:06;;;;;;;;;;;21.00;99.90;;;;;;5034657;28;19973;-86
2022/07/30 06:55:32;;;;;;;;;;;21.30;99.90;;;;;;5033929;28;20331;-84
2022/07/30 06:57:58;;;;;;;;;;;21.50;99.90;;;;;;5034077;28;19963;-84
2022/07/30 07:00:24;;;;;;;;;;;21.70;99.90;;;;;;5034423;28;19925;-85
2022/07/30 07:02:49;;;;;;;;;;;21.90;99.90;;;;;;5034148;28;19917;-85
2022/07/30 07:05:15;;;;;;;;;;;22.10;99.90;;;;;;5033702;28;20326;-86
2022/07/30 07:07:40;;;;;;;;;;;22.30;99.90;;;;;;5034832;28;20002;-86
2022/07/30 07:10:06;;;;;;;;;;;22.50;99.90;;;;;;5034661;28;19916;-86
2022/07/30 07:12:32;;;;;;;;;;;22.60;99.90;;;;;;5017344;28;19931;-84
2022/07/30 07:14:57;;;;;;;;;;;22.90;99.90;;;;;;5033784;28;20411;-86
2022/07/30 07:17:23;;;;;;;;;;;23.10;99.90;;;;;;4998494;28;19917;-85
2022/07/30 07:19:49;;;;;;;;;;;23.20;99.90;;;;;;5034371;28;20312;-85
2022/07/30 07:22:14;;;;;;;;;;;23.30;99.90;;;;;;5003543;28;19962;-84
2022/07/30 07:24:40;;;;;;;;;;;23.40;99.90;;;;;;5004345;28;19917;-85
2022/07/30 07:27:06;;;;;;;;;;;23.50;99.90;;;;;;5037607;28;20377;-85
2022/07/30 07:29:31;;;;;;;;;;;23.60;99.90;;;;;;5021209;28;19921;-84
2022/07/30 07:31:57;;;;;;;;;;;23.50;99.90;;;;;;5022018;28;20030;-83
2022/07/30 07:34:22;;;;;;;;;;;23.70;99.90;;;;;;5038692;28;20281;-84
2022/07/30 07:36:48;;;;;;;;;;;23.70;99.90;;;;;;5038197;28;19916;-83
2022/07/30 07:39:13;;;;;;;;;;;23.80;99.90;;;;;;5021503;28;19917;-85
2022/07/30 07:41:39;;;;;;;;;;;23.80;99.90;;;;;;5021055;28;19916;-84
2022/07/30 07:44:04;;;;;;;;;;;24.10;99.90;;;;;;5020734;28;19923;-83
2022/07/30 07:46:30;;;;;;;;;;;24.30;99.90;;;;;;5037195;28;20005;-84
2022/07/30 07:48:56;;;;;;;;;;;24.50;99.90;;;;;;5020429;28;19916;-85
2022/07/30 07:51:22;;;;;;;;;;;24.70;99.90;;;;;;5035863;28;20384;-82
2022/07/30 07:53:47;;;;;;;;;;;24.60;99.90;;;;;;5036623;28;19932;-84
2022/07/30 07:56:13;;;;;;;;;;;24.60;99.90;;;;;;5035471;28;19917;-82
2022/07/30 07:58:39;;;;;;;;;;;24.60;99.90;;;;;;5036904;28;19924;-85
2022/07/30 08:01:05;;;;;;;;;;;24.70;99.90;;;;;;5017999;28;19931;-82
2022/07/30 08:03:30;;;;;;;;;;;24.60;99.90;;;;;;5036111;28;20312;-77
2022/07/30 08:05:56;;;;;;;;;;;24.70;99.90;;;;;;5036167;28;19944;-75
2022/07/30 08:08:22;;;;;;;;;;;24.60;99.90;;;;;;5036006;28;19924;-76
2022/07/30 08:10:47;;;;;;;;;;;24.60;99.90;;;;;;5035841;28;19924;-76
2022/07/30 08:13:14;;;;;;;;;;;24.70;99.90;;;;;;5019634;28;20336;-76
2022/07/30 08:15:39;;;;;;;;;;;24.80;99.90;;;;;;5053447;28;19969;-76
2022/07/30 08:18:06;;;;;;;;;;;24.60;99.90;;;;;;5035803;28;19916;-75
2022/07/30 08:20:32;;;;;;;;;;;24.50;99.90;;;;;;5035876;28;20381;-74
2022/07/30 08:22:58;;;;;;;;;;;24.60;99.90;;;;;;5035862;28;19952;-77
2022/07/30 08:25:23;;;;;;;;;;;24.80;99.90;;;;;;5035404;28;19970;-77
2022/07/30 08:27:49;;;;;;;;;;;24.90;99.90;;;;;;5036379;28;19928;-77
2022/07/30 08:30:14;;;;;;;;;;;25.20;99.90;;;;;;5033257;28;19921;-76
2022/07/30 08:32:40;;;;;;;;;;;25.20;99.90;;;;;;5018170;28;20042;-78
2022/07/30 08:35:06;;;;;;;;;;;25.40;99.90;;;;;;5035635;28;20754;-76
2022/07/30 08:37:31;;;;;;;;;;;25.70;99.90;;;;;;5030635;28;19923;-75
2022/07/30 08:39:57;;;;;;;;;;;26.10;99.90;;;;;;5030452;28;19920;-73
2022/07/30 08:42:23;;;;;;;;;;;26.10;99.90;;;;;;5031899;28;20311;-73
2022/07/30 08:44:49;;;;;;;;;;;26.00;99.90;;;;;;5048023;28;19923;-74
2022/07/30 08:47:17;;;;;;;;;;;25.70;99.90;;;;;;5030795;28;20371;-74
2022/07/30 08:49:43;;;;;;;;;;;25.90;99.90;;;;;;5029713;28;19920;-72
2022/07/30 08:52:09;;;;;;;;;;;26.30;99.90;;;;;;5029232;28;19924;-71
2022/07/30 08:54:35;;;;;;;;;;;26.70;99.90;;;;;;5030968;28;19924;-72
2022/07/30 08:57:01;;;;;;;;;;;27.00;99.90;;;;;;5031534;28;19916;-71
2022/07/30 08:59:27;;;;;;;;;;;27.40;99.90;;;;;;5034600;28;20066;-70
2022/07/30 09:01:53;;;;;;;;;;;27.50;99.90;;;;;;5035325;28;20345;-72
2022/07/30 09:04:18;;;;;;;;;;;27.30;99.90;;;;;;5034869;28;19920;-72
2022/07/30 09:06:44;;;;;;;;;;;27.00;99.90;;;;;;5052734;28;20300;-73
2022/07/30 09:09:09;;;;;;;;;;;26.80;99.90;;;;;;5034852;28;19917;-73
2022/07/30 09:11:35;;;;;;;;;;;26.90;99.90;;;;;;5034540;28;20307;-73
2022/07/30 09:14:11;;;;;;;;;;;27.20;99.90;;;;;;5035394;28;19917;-70
2022/07/30 09:16:37;;;;;;;;;;;27.60;99.90;;;;;;5034280;28;19999;-72
2022/07/30 09:19:16;;;;;;;;;;;27.90;99.90;;;;;;5034606;28;20074;-73
2022/07/30 09:21:41;;;;;;;;;;;27.80;99.90;;;;;;5034180;28;19924;-72
2022/07/30 09:24:08;;;;;;;;;;;28.00;99.70;;;;;;5034594;28;19921;-73
2022/07/30 09:26:54;;;;;;;;;;;28.00;99.90;;;;;;5034442;28;20361;-72
2022/07/30 09:29:21;;;;;;;;;;;28.20;99.60;;;;;;5034267;28;19920;-72
2022/07/30 09:32:01;;;;;;;;;;;28.50;99.90;;;;;;5034997;28;19917;-72
2022/07/30 09:34:30;;;;;;;;;;;28.60;98.90;;;;;;5034356;28;19920;-76
2022/07/30 09:36:57;;;;;;;;;;;28.60;98.90;;;;;;5034488;28;20011;-74
2022/07/30 09:39:29;;;;;;;;;;;28.90;98.80;;;;;;5034197;28;19966;-74
2022/07/30 09:41:55;;;;;;;;;;;29.30;98.70;;;;;;5033139;28;19927;-77
2022/07/30 09:44:25;;;;;;;;;;;29.40;97.50;;;;;;5033489;28;20321;-77
2022/07/30 09:46:50;;;;;;;;;;;29.60;98.10;;;;;;5033968;28;19944;-76
2022/07/30 09:49:17;;;;;;;;;;;29.60;97.90;;;;;;5033447;28;19916;-76
2022/07/30 09:51:43;;;;;;;;;;;29.80;98.10;;;;;;5033294;28;19959;-77
2022/07/30 09:54:09;;;;;;;;;;;30.00;97.00;;;;;;5034216;28;20408;-77
2022/07/30 09:56:34;;;;;;;;;;;30.10;96.80;;;;;;5033605;28;20015;-77
2022/07/30 09:59:00;;;;;;;;;;;30.20;97.40;;;;;;5034283;28;19963;-77
2022/07/30 10:01:27;;;;;;;;;;;30.40;97.00;;;;;;5033939;28;19920;-75
2022/07/30 10:03:53;;;;;;;;;;;30.40;96.70;;;;;;5034000;28;20362;-73
2022/07/30 10:06:30;;;;;;;;;;;30.40;96.90;;;;;;5017310;28;19936;-74
2022/07/30 10:08:56;;;;;;;;;;;30.30;96.10;;;;;;5033849;28;19917;-73
2022/07/30 10:11:22;;;;;;;;;;;30.50;96.20;;;;;;5033729;28;19923;-73
2022/07/30 10:13:48;;;;;;;;;;;30.80;96.30;;;;;;5033455;28;19936;-73
2022/07/30 10:16:14;;;;;;;;;;;30.30;96.40;;;;;;5033698;28;19916;-74
2022/07/30 10:18:43;;;;;;;;;;;30.30;95.70;;;;;;5033271;28;19917;-74
2022/07/30 10:21:09;;;;;;;;;;;30.30;95.70;;;;;;5033183;28;19924;-74
2022/07/30 10:23:34;;;;;;;;;;;30.40;95.40;;;;;;5033079;28;19917;-74
2022/07/30 10:26:00;;;;;;;;;;;30.30;95.30;;;;;;5033888;28;19943;-74
2022/07/30 10:28:27;;;;;;;;;;;30.00;95.30;;;;;;5033360;28;19924;-74
2022/07/30 10:30:53;;;;;;;;;;;30.10;95.50;;;;;;5033329;28;19975;-73
2022/07/30 10:33:20;;;;;;;;;;;30.30;96.10;;;;;;5033791;28;19917;-74
2022/07/30 10:35:45;;;;;;;;;;;30.70;95.10;;;;;;5033392;28;19932;-75
2022/07/30 10:38:12;;;;;;;;;;;30.80;95.10;;;;;;5034501;28;19916;-74
2022/07/30 10:40:41;;;;;;;;;;;31.10;94.70;;;;;;5033295;28;20416;-76
2022/07/30 10:43:06;;;;;;;;;;;30.90;95.00;;;;;;5033905;28;20382;-76
2022/07/30 10:45:32;;;;;;;;;;;30.60;94.20;;;;;;5033254;28;19917;-76
2022/07/30 10:47:58;;;;;;;;;;;30.50;95.50;;;;;;5033242;28;19921;-76
2022/07/30 10:50:25;;;;;;;;;;;30.20;95.10;;;;;;5033683;28;19931;-74
2022/07/30 10:52:59;;;;;;;;;;;30.10;95.00;;;;;;5033238;28;20268;-73
2022/07/30 10:55:26;;;;;;;;;;;29.90;95.40;;;;;;5034074;28;19920;-74
2022/07/30 10:58:01;;;;;;;;;;;29.50;95.20;;;;;;5013879;28;19974;-74
2022/07/30 11:00:27;;;;;;;;;;;29.40;95.70;;;;;;5033166;28;20388;-73
2022/07/30 11:03:11;;;;;;;;;;;29.60;95.90;;;;;;5032709;28;19917;-74
2022/07/30 11:05:37;;;;;;;;;;;29.50;95.60;;;;;;5050802;28;20363;-75
2022/07/30 11:08:21;;;;;;;;;;;29.10;95.60;;;;;;5036658;28;19921;-77
2022/07/30 11:10:47;;;;;;;;;;;28.70;96.10;;;;;;5032988;28;20008;-73
2022/07/30 11:13:12;;;;;;;;;;;28.30;95.90;;;;;;5032831;28;20336;-76
2022/07/30 11:15:53;;;;;;;;;;;28.70;95.80;;;;;;5051857;28;19990;-77
2022/07/30 11:18:19;;;;;;;;;;;29.30;95.60;;;;;;5032882;28;19963;-78
2022/07/30 11:21:04;;;;;;;;;;;29.80;95.70;;;;;;5032432;28;19920;-77
2022/07/30 11:23:37;;;;;;;;;;;30.10;94.90;;;;;;5032675;28;19924;-75
2022/07/30 11:26:03;;;;;;;;;;;30.00;95.50;;;;;;5032923;28;19920;-75
2022/07/30 11:28:58;;;;;;;;;;;30.00;94.50;;;;;;5033366;28;19940;-74
2022/07/30 11:31:25;;;;;;;;;;;29.90;94.70;;;;;;5020038;28;19916;-78
2022/07/30 11:33:50;;;;;;;;;;;29.60;94.90;;;;;;5033131;28;19916;-76
2022/07/30 11:36:16;;;;;;;;;;;29.70;94.50;;;;;;4999153;28;19917;-76
2022/07/30 11:38:51;;;;;;;;;;;29.80;95.10;;;;;;5033101;28;19964;-78
2022/07/30 11:41:17;;;;;;;;;;;29.70;94.40;;;;;;5017264;28;19928;-79
2022/07/30 11:43:43;;;;;;;;;;;29.60;94.80;;;;;;5015710;28;19983;-78
2022/07/30 11:46:09;;;;;;;;;;;29.70;93.60;;;;;;5033566;28;20299;-81
2022/07/30 11:48:37;;;;;;;;;;;30.20;93.90;;;;;;5033452;28;19967;-81
2022/07/30 11:51:02;;;;;;;;;;;30.70;93.50;;;;;;5034175;28;19955;-80
2022/07/30 11:53:28;;;;;;;;;;;30.80;92.90;;;;;;5017311;28;20400;-80
2022/07/30 11:55:58;;;;;;;;;;;30.90;93.40;;;;;;5033126;28;20288;-80
2022/07/30 11:58:25;;;;;;;;;;;31.10;93.30;;;;;;5033759;28;19921;-82
2022/07/30 12:00:51;;;;;;;;;;;31.20;92.60;;;;;;5033475;28;20029;-81
2022/07/30 12:03:19;;;;;;;;;;;31.30;92.70;;;;;;5033831;28;19927;-82
2022/07/30 12:05:45;;;;;;;;;;;31.60;93.00;;;;;;5033291;28;20640;-82
2022/07/30 12:08:11;;;;;;;;;;;31.10;92.40;;;;;;5037041;28;19916;-81
2022/07/30 12:10:39;;;;;;;;;;;30.90;93.80;;;;;;5037831;28;19917;-81
2022/07/30 12:13:07;;;;;;;;;;;30.70;94.00;;;;;;5036950;28;19916;-80
2022/07/30 12:15:34;;;;;;;;;;;30.30;93.10;;;;;;5037054;28;20021;-82
2022/07/30 12:18:02;;;;;;;;;;;30.20;94.30;;;;;;5037677;28;20364;-78
2022/07/30 12:20:28;;;;;;;;;;;30.30;93.40;;;;;;5041336;28;19916;-82
2022/07/30 12:22:55;;;;;;;;;;;30.60;93.10;;;;;;5021372;28;19916;-83
2022/07/30 12:25:20;;;;;;;;;;;30.90;92.70;;;;;;5036761;28;20415;-81
2022/07/30 12:27:46;;;;;;;;;;;31.40;93.50;;;;;;5019055;28;19964;-76
2022/07/30 12:30:13;;;;;;;;;;;31.90;93.10;;;;;;5035670;28;19960;-76
2022/07/30 12:32:38;;;;;;;;;;;32.00;92.30;;;;;;5035632;28;19917;-74
2022/07/30 12:35:04;;;;;;;;;;;32.10;92.00;;;;;;5035563;28;19924;-76
2022/07/30 12:37:30;;;;;;;;;;;32.40;91.90;;;;;;5035541;28;20380;-77
2022/07/30 12:40:06;;;;;;;;;;;32.20;92.00;;;;;;5034571;28;19917;-76
2022/07/30 12:42:31;;;;;;;;;;;31.90;91.30;;;;;;5035096;28;19924;-77
2022/07/30 12:44:57;;;;;;;;;;;31.70;92.20;;;;;;5034352;28;19922;-74
2022/07/30 12:47:24;;;;;;;;;;;31.60;91.80;;;;;;5035057;28;20467;-79
2022/07/30 12:49:50;;;;;;;;;;;31.60;91.80;;;;;;5035920;28;20407;-79
2022/07/30 12:52:19;;;;;;;;;;;31.60;92.00;;;;;;5018777;28;20412;-76
2022/07/30 12:54:55;;;;;;;;;;;31.60;91.70;;;;;;5051530;28;19921;-77
2022/07/30 12:57:20;;;;;;;;;;;31.70;91.30;;;;;;5035729;28;19923;-77
2022/07/30 12:59:46;;;;;;;;;;;31.70;91.30;;;;;;5035271;28;19942;-77
2022/07/30 13:02:11;;;;;;;;;;;31.80;91.30;;;;;;5035891;28;20004;-78
2022/07/30 13:04:48;;;;;;;;;;;31.60;90.70;;;;;;5035710;28;20352;-76
2022/07/30 13:07:15;;;;;;;;;;;31.70;90.80;;;;;;5053081;28;19928;-76
2022/07/30 13:09:41;;;;;;;;;;;31.60;91.40;;;;;;5035223;28;19943;-75
2022/07/30 13:12:11;;;;;;;;;;;31.40;90.30;;;;;;5033634;28;20461;-75
2022/07/30 13:14:36;;;;;;;;;;;31.40;91.00;;;;;;5034669;28;19917;-76
2022/07/30 13:17:02;;;;;;;;;;;31.50;92.00;;;;;;5034648;28;20016;-76
2022/07/30 13:19:28;;;;;;;;;;;31.70;91.60;;;;;;5035198;28;20373;-75
2022/07/30 13:21:53;;;;;;;;;;;31.70;91.10;;;;;;5035396;28;19916;-81
2022/07/30 13:24:19;;;;;;;;;;;31.80;91.20;;;;;;5032793;28;19963;-81
2022/07/30 13:26:45;;;;;;;;;;;31.80;90.60;;;;;;5034927;28;20462;-76
2022/07/30 13:29:12;;;;;;;;;;;31.70;90.40;;;;;;5034351;28;19962;-75
2022/07/30 13:31:38;;;;;;;;;;;31.60;90.50;;;;;;5034501;28;19916;-75
2022/07/30 13:34:03;;;;;;;;;;;31.80;90.60;;;;;;5034628;28;19924;-79
2022/07/30 13:36:29;;;;;;;;;;;31.30;90.00;;;;;;5018490;28;19916;-78
2022/07/30 13:38:54;;;;;;;;;;;31.10;90.10;;;;;;4999521;28;19917;-77
2022/07/30 13:41:20;;;;;;;;;;;31.00;90.10;;;;;;5018209;28;19923;-77
2022/07/30 13:43:46;;;;;;;;;;;30.90;91.00;;;;;;5034752;28;19916;-78
2022/07/30 13:46:11;;;;;;;;;;;30.90;90.50;;;;;;5033151;28;20015;-80
2022/07/30 13:48:37;;;;;;;;;;;30.90;90.80;;;;;;5035160;28;19917;-76
2022/07/30 13:51:04;;;;;;;;;;;30.90;91.00;;;;;;5034148;28;19920;-74
2022/07/30 13:53:29;;;;;;;;;;;30.70;91.20;;;;;;5034518;28;20372;-77
2022/07/30 13:55:55;;;;;;;;;;;30.40;90.30;;;;;;5009561;28;19920;-78
2022/07/30 13:58:21;;;;;;;;;;;30.30;90.00;;;;;;5010725;28;19974;-76
2022/07/30 14:00:47;;;;;;;;;;;30.00;90.20;;;;;;5033957;28;19939;-75
2022/07/30 14:03:12;;;;;;;;;;;29.90;91.50;;;;;;5032491;28;19970;-76
2022/07/30 14:05:38;;;;;;;;;;;29.50;91.00;;;;;;5023922;28;19916;-75
2022/07/30 14:08:04;;;;;;;;;;;29.20;90.60;;;;;;5029533;28;20416;-75
2022/07/30 14:10:31;;;;;;;;;;;29.00;90.30;;;;;;5033781;28;19959;-73
2022/07/30 14:12:57;;;;;;;;;;;29.00;90.50;;;;;;5031379;28;20390;-71
2022/07/30 14:15:23;;;;;;;;;;;29.10;91.30;;;;;;5032230;28;19921;-71